createdAt,value
2018-06-16T00:00:49.212Z,20.18
2018-06-16T00:01:49.200Z,20.12
2018-06-16T00:02:49.202Z,20.19
2018-06-16T00:03:49.187Z,20.17
2018-06-16T00:04:49.170Z,20.23
2018-06-16T00:05:49.158Z,20.32
2018-06-16T00:06:49.147Z,20.26
2018-06-16T00:07:49.135Z,20.27
2018-06-16T00:08:49.128Z,20.27
2018-06-16T00:09:49.116Z,20.33
2018-06-16T00:10:49.107Z,20.32
2018-06-16T00:11:49.237Z,20.27
2018-06-16T00:12:49.084Z,20.26
2018-06-16T00:13:49.096Z,20.18
2018-06-16T00:14:49.061Z,20.18
2018-06-16T00:15:49.051Z,20.07
2018-06-16T00:16:49.042Z,20.05
2018-06-16T00:17:49.016Z,20.15
2018-06-16T00:18:49.010Z,20.05
2018-06-16T00:19:49.014Z,20.11
2018-06-16T00:20:48.982Z,20.11
2018-06-16T00:21:49.082Z,20.11
2018-06-16T00:22:48.968Z,20.23
2018-06-16T00:23:49.004Z,20.23
2018-06-16T00:24:48.943Z,20.17
2018-06-16T00:25:48.930Z,20.19
2018-06-16T00:26:48.917Z,20.18
2018-06-16T00:27:48.955Z,20.08
2018-06-16T00:28:48.901Z,20.09
2018-06-16T00:29:48.876Z,20.18
2018-06-16T00:30:48.870Z,20.14
2018-06-16T00:31:48.860Z,20.14
2018-06-16T00:32:48.844Z,20.15
2018-06-16T00:33:48.837Z,20.23
2018-06-16T00:34:48.824Z,20.15
2018-06-16T00:35:48.820Z,20.19
2018-06-16T00:36:48.796Z,20.23
2018-06-16T00:37:48.790Z,20.19
2018-06-16T00:38:48.779Z,20.22
2018-06-16T00:39:48.767Z,20.33
2018-06-16T00:40:48.754Z,20.34
2018-06-16T00:41:48.741Z,20.27
2018-06-16T00:42:48.732Z,20.29
2018-06-16T00:43:48.723Z,20.22
2018-06-16T00:44:48.710Z,20.23
2018-06-16T00:45:48.700Z,20.15
2018-06-16T00:46:48.686Z,20.11
2018-06-16T00:47:48.682Z,20.15
2018-06-16T00:48:48.655Z,20.05
2018-06-16T00:49:48.652Z,20.04
2018-06-16T00:50:48.636Z,19.84
2018-06-16T00:51:48.630Z,19.79
2018-06-16T00:52:48.637Z,19.67
2018-06-16T00:53:48.604Z,19.60
2018-06-16T00:54:48.602Z,19.56
2018-06-16T00:55:48.583Z,19.53
2018-06-16T00:56:48.568Z,19.53
2018-06-16T00:57:48.560Z,19.53
2018-06-16T00:58:48.540Z,19.52
2018-06-16T00:59:48.535Z,19.64
2018-06-16T01:00:48.525Z,19.67
2018-06-16T01:01:48.521Z,19.78
2018-06-16T01:02:48.501Z,19.82
2018-06-16T01:03:48.486Z,19.82
2018-06-16T01:04:48.477Z,19.78
2018-06-16T01:05:48.470Z,19.77
2018-06-16T01:06:48.458Z,19.81
2018-06-16T01:07:48.436Z,19.79
2018-06-16T01:08:48.429Z,19.82
2018-06-16T01:09:48.417Z,19.86
2018-06-16T01:10:48.407Z,19.84
2018-06-16T01:11:48.400Z,19.93
2018-06-16T01:12:48.383Z,19.93
2018-06-16T01:13:48.371Z,19.97
2018-06-16T01:14:48.369Z,19.93
2018-06-16T01:15:48.347Z,19.96
2018-06-16T01:16:48.337Z,20.04
2018-06-16T01:17:48.328Z,20.02
2018-06-16T01:18:48.313Z,20.02
2018-06-16T01:19:48.304Z,20.05
2018-06-16T01:20:48.282Z,20.02
2018-06-16T01:21:48.278Z,20.07
2018-06-16T01:22:48.271Z,20.00
2018-06-16T01:23:48.255Z,19.97
2018-06-16T01:24:48.249Z,19.81
2018-06-16T01:25:48.231Z,19.92
2018-06-16T01:26:48.217Z,19.87
2018-06-16T01:27:48.210Z,19.87
2018-06-16T01:28:48.200Z,19.81
2018-06-16T01:29:48.185Z,19.82
2018-06-16T01:30:48.167Z,19.82
2018-06-16T01:31:48.156Z,19.82
2018-06-16T01:32:48.147Z,19.75
2018-06-16T01:33:48.136Z,19.78
2018-06-16T01:34:48.125Z,19.70
2018-06-16T01:35:48.111Z,19.63
2018-06-16T01:36:48.101Z,19.53
2018-06-16T01:37:48.086Z,19.41
2018-06-16T01:38:48.081Z,19.31
2018-06-16T01:39:48.065Z,19.22
2018-06-16T01:40:48.065Z,19.13
2018-06-16T01:41:48.044Z,19.15
2018-06-16T01:42:48.026Z,19.23
2018-06-16T01:43:48.014Z,19.19
2018-06-16T01:44:48.001Z,19.34
2018-06-16T01:45:47.998Z,19.31
2018-06-16T01:46:47.983Z,19.35
2018-06-16T01:47:47.970Z,19.41
2018-06-16T01:48:47.963Z,19.41
2018-06-16T01:49:47.946Z,19.39
2018-06-16T01:50:47.935Z,19.44
2018-06-16T01:51:47.924Z,19.38
2018-06-16T01:52:47.912Z,19.49
2018-06-16T01:53:47.901Z,19.38
2018-06-16T01:54:47.881Z,19.35
2018-06-16T01:55:47.882Z,19.39
2018-06-16T01:56:47.857Z,19.31
2018-06-16T01:57:47.848Z,19.27
2018-06-16T01:58:47.831Z,19.24
2018-06-16T01:59:47.827Z,18.97
2018-06-16T02:00:47.820Z,19.07
2018-06-16T02:01:47.802Z,18.86
2018-06-16T02:02:47.793Z,18.91
2018-06-16T02:03:47.774Z,18.88
2018-06-16T02:04:47.764Z,18.88
2018-06-16T02:05:47.760Z,18.97
2018-06-16T02:06:47.742Z,18.98
2018-06-16T02:07:47.732Z,18.93
2018-06-16T02:08:47.715Z,18.94
2018-06-16T02:09:47.713Z,18.94
2018-06-16T02:10:47.690Z,19.05
2018-06-16T02:11:47.676Z,19.09
2018-06-16T02:12:47.663Z,19.13
2018-06-16T02:13:47.802Z,19.13
2018-06-16T02:14:47.643Z,19.12
2018-06-16T02:15:47.634Z,19.08
2018-06-16T02:16:47.619Z,19.16
2018-06-16T02:17:47.612Z,19.15
2018-06-16T02:18:47.587Z,19.19
2018-06-16T02:19:47.580Z,19.08
2018-06-16T02:20:47.573Z,19.08
2018-06-16T02:21:47.558Z,19.09
2018-06-16T02:22:47.552Z,18.96
2018-06-16T02:23:47.631Z,19.00
2018-06-16T02:24:47.525Z,19.00
2018-06-16T02:25:47.609Z,18.96
2018-06-16T02:26:47.498Z,19.00
2018-06-16T02:27:47.577Z,19.01
2018-06-16T02:28:47.471Z,18.82
2018-06-16T02:29:47.486Z,18.71
2018-06-16T02:30:47.452Z,18.51
2018-06-16T02:31:47.535Z,18.43
2018-06-16T02:32:47.415Z,18.27
2018-06-16T02:33:47.458Z,18.18
2018-06-16T02:34:47.393Z,18.18
2018-06-16T02:35:47.385Z,18.15
2018-06-16T02:36:47.373Z,18.12
2018-06-16T02:37:47.360Z,18.20
2018-06-16T02:38:47.351Z,18.20
2018-06-16T02:39:47.350Z,18.31
2018-06-16T02:40:47.315Z,18.42
2018-06-16T02:41:47.309Z,18.41
2018-06-16T02:42:47.295Z,18.48
2018-06-16T02:43:47.285Z,18.48
2018-06-16T02:44:47.270Z,18.58
2018-06-16T02:45:47.256Z,18.61
2018-06-16T02:46:47.240Z,18.66
2018-06-16T02:47:47.235Z,18.71
2018-06-16T02:48:47.220Z,18.75
2018-06-16T02:49:47.212Z,18.76
2018-06-16T02:50:47.197Z,18.74
2018-06-16T02:51:47.184Z,18.75
2018-06-16T02:52:47.166Z,18.70
2018-06-16T02:53:47.178Z,18.81
2018-06-16T02:54:47.165Z,18.71
2018-06-16T02:55:47.131Z,18.74
2018-06-16T02:56:47.122Z,18.81
2018-06-16T02:57:47.112Z,18.78
2018-06-16T02:58:47.098Z,18.71
2018-06-16T02:59:47.082Z,18.60
2018-06-16T03:00:47.066Z,18.48
2018-06-16T03:01:47.053Z,18.34
2018-06-16T03:02:47.044Z,18.23
2018-06-16T03:03:47.038Z,18.21
2018-06-16T03:04:47.016Z,18.06
2018-06-16T03:05:47.006Z,18.01
2018-06-16T03:06:47.001Z,18.01
2018-06-16T03:07:46.978Z,18.03
2018-06-16T03:08:46.969Z,18.03
2018-06-16T03:09:46.955Z,18.06
2018-06-16T03:10:46.948Z,18.13
2018-06-16T03:11:46.925Z,18.15
2018-06-16T03:12:46.918Z,18.24
2018-06-16T03:13:46.900Z,18.26
2018-06-16T03:14:46.889Z,18.30
2018-06-16T03:15:46.884Z,18.31
2018-06-16T03:16:46.865Z,18.36
2018-06-16T03:17:46.851Z,18.45
2018-06-16T03:18:46.841Z,18.41
2018-06-16T03:19:46.825Z,18.36
2018-06-16T03:20:46.819Z,18.36
2018-06-16T03:21:46.799Z,18.34
2018-06-16T03:22:46.789Z,18.45
2018-06-16T03:23:46.777Z,18.43
2018-06-16T03:24:46.762Z,18.39
2018-06-16T03:25:46.764Z,18.28
2018-06-16T03:26:46.739Z,17.99
2018-06-16T03:27:46.730Z,17.83
2018-06-16T03:28:46.717Z,17.75
2018-06-16T03:29:46.720Z,17.53
2018-06-16T03:30:46.685Z,17.49
2018-06-16T03:31:46.684Z,17.50
2018-06-16T03:32:46.662Z,17.52
2018-06-16T03:33:46.650Z,17.39
2018-06-16T03:34:46.640Z,17.50
2018-06-16T03:35:46.624Z,17.52
2018-06-16T03:36:46.612Z,17.59
2018-06-16T03:37:46.602Z,17.71
2018-06-16T03:38:46.585Z,17.75
2018-06-16T03:39:46.575Z,17.78
2018-06-16T03:40:46.557Z,17.90
2018-06-16T03:41:46.548Z,17.87
2018-06-16T03:42:46.538Z,17.79
2018-06-16T03:43:46.521Z,17.75
2018-06-16T03:44:46.656Z,17.71
2018-06-16T03:45:46.496Z,17.63
2018-06-16T03:46:46.583Z,17.59
2018-06-16T03:47:46.464Z,17.72
2018-06-16T03:48:46.509Z,17.75
2018-06-16T03:49:46.438Z,17.78
2018-06-16T03:50:46.477Z,17.87
2018-06-16T03:51:46.422Z,17.93
2018-06-16T03:52:46.413Z,17.91
2018-06-16T03:53:46.392Z,17.97
2018-06-16T03:54:46.384Z,18.05
2018-06-16T03:55:46.365Z,18.09
2018-06-16T03:56:46.352Z,18.13
2018-06-16T03:57:46.346Z,18.01
2018-06-16T03:58:46.324Z,18.02
2018-06-16T03:59:46.315Z,18.15
2018-06-16T04:00:46.352Z,18.15
2018-06-16T04:01:46.303Z,18.15
2018-06-16T04:02:46.269Z,18.23
2018-06-16T04:03:46.258Z,18.15
2018-06-16T04:04:46.245Z,18.11
2018-06-16T04:05:46.238Z,18.03
2018-06-16T04:06:46.226Z,17.88
2018-06-16T04:07:46.215Z,17.79
2018-06-16T04:08:46.197Z,17.66
2018-06-16T04:09:46.186Z,17.73
2018-06-16T04:10:46.171Z,17.65
2018-06-16T04:11:46.161Z,17.59
2018-06-16T04:12:46.152Z,17.65
2018-06-16T04:13:46.136Z,17.76
2018-06-16T04:14:46.117Z,17.75
2018-06-16T04:15:46.103Z,17.84
2018-06-16T04:16:46.156Z,17.97
2018-06-16T04:17:46.083Z,18.03
2018-06-16T04:18:46.073Z,17.91
2018-06-16T04:19:46.063Z,17.83
2018-06-16T04:20:46.047Z,17.91
2018-06-16T04:21:46.032Z,17.83
2018-06-16T04:22:46.016Z,17.88
2018-06-16T04:23:46.010Z,17.84
2018-06-16T04:24:45.992Z,17.90
2018-06-16T04:25:45.977Z,17.87
2018-06-16T04:26:45.967Z,17.86
2018-06-16T04:27:45.958Z,17.88
2018-06-16T04:28:45.941Z,17.90
2018-06-16T04:29:45.930Z,18.01
2018-06-16T04:30:45.915Z,18.20
2018-06-16T04:31:45.900Z,18.27
2018-06-16T04:32:45.888Z,18.26
2018-06-16T04:33:45.880Z,18.18
2018-06-16T04:34:45.880Z,18.15
2018-06-16T04:35:45.850Z,18.24
2018-06-16T04:36:45.837Z,18.18
2018-06-16T04:37:45.821Z,17.99
2018-06-16T04:38:45.812Z,18.02
2018-06-16T04:39:45.802Z,18.05
2018-06-16T04:40:45.797Z,18.15
2018-06-16T04:41:45.779Z,18.17
2018-06-16T04:42:45.758Z,18.27
2018-06-16T04:43:45.749Z,18.34
2018-06-16T04:44:45.736Z,18.43
2018-06-16T04:45:45.876Z,18.49
2018-06-16T04:46:45.707Z,18.39
2018-06-16T04:47:45.694Z,18.46
2018-06-16T04:48:45.686Z,18.45
2018-06-16T04:49:45.679Z,18.42
2018-06-16T04:50:45.660Z,18.52
2018-06-16T04:51:45.644Z,18.61
2018-06-16T04:52:45.628Z,18.63
2018-06-16T04:53:45.621Z,18.74
2018-06-16T04:54:45.612Z,18.75
2018-06-16T04:55:45.602Z,18.78
2018-06-16T04:56:45.581Z,18.71
2018-06-16T04:57:45.570Z,18.76
2018-06-16T04:58:45.561Z,18.75
2018-06-16T04:59:45.551Z,18.93
2018-06-16T05:00:45.531Z,18.96
2018-06-16T05:01:45.515Z,18.93
2018-06-16T05:02:45.516Z,18.94
2018-06-16T05:03:45.496Z,18.94
2018-06-16T05:04:45.475Z,18.93
2018-06-16T05:05:45.467Z,18.93
2018-06-16T05:06:45.458Z,18.85
2018-06-16T05:07:45.448Z,18.88
2018-06-16T05:08:45.439Z,18.91
2018-06-16T05:09:45.421Z,18.93
2018-06-16T05:10:45.403Z,18.98
2018-06-16T05:11:45.404Z,19.04
2018-06-16T05:12:45.390Z,19.19
2018-06-16T05:13:45.377Z,19.09
2018-06-16T05:14:45.362Z,19.12
2018-06-16T05:15:45.351Z,19.16
2018-06-16T05:16:45.336Z,19.19
2018-06-16T05:17:45.320Z,19.17
2018-06-16T05:18:45.308Z,19.27
2018-06-16T05:19:45.301Z,19.30
2018-06-16T05:20:45.285Z,19.39
2018-06-16T05:21:45.277Z,19.38
2018-06-16T05:22:45.260Z,19.32
2018-06-16T05:23:45.261Z,19.49
2018-06-16T05:24:45.242Z,19.50
2018-06-16T05:25:45.328Z,19.60
2018-06-16T05:26:45.222Z,19.77
2018-06-16T05:27:45.212Z,19.87
2018-06-16T05:28:45.197Z,19.82
2018-06-16T05:29:45.182Z,19.78
2018-06-16T05:30:45.172Z,19.79
2018-06-16T05:31:45.166Z,19.90
2018-06-16T05:32:45.150Z,19.90
2018-06-16T05:33:45.136Z,19.90
2018-06-16T05:34:45.126Z,19.93
2018-06-16T05:35:45.115Z,19.89
2018-06-16T05:36:45.098Z,19.99
2018-06-16T05:37:45.092Z,19.94
2018-06-16T05:38:45.084Z,20.05
2018-06-16T05:39:45.067Z,20.15
2018-06-16T05:40:45.050Z,20.23
2018-06-16T05:41:45.039Z,20.19
2018-06-16T05:42:45.037Z,20.17
2018-06-16T05:43:45.021Z,20.27
2018-06-16T05:44:45.007Z,20.12
2018-06-16T05:45:44.998Z,20.08
2018-06-16T05:46:44.992Z,20.14
2018-06-16T05:47:44.976Z,20.22
2018-06-16T05:48:44.957Z,20.29
2018-06-16T05:49:44.946Z,20.29
2018-06-16T05:50:44.938Z,20.09
2018-06-16T05:51:44.921Z,20.27
2018-06-16T05:52:44.912Z,20.30
2018-06-16T05:53:44.912Z,20.29
2018-06-16T05:54:45.048Z,20.19
2018-06-16T05:55:44.880Z,20.37
2018-06-16T05:56:44.873Z,20.36
2018-06-16T05:57:44.857Z,20.26
2018-06-16T05:58:44.928Z,20.36
2018-06-16T05:59:44.835Z,20.41
2018-06-16T06:00:44.883Z,20.39
2018-06-16T06:01:44.809Z,20.50
2018-06-16T06:02:44.912Z,20.63
2018-06-16T06:03:44.787Z,20.63
2018-06-16T06:04:44.932Z,20.70
2018-06-16T06:05:44.767Z,20.67
2018-06-16T06:06:44.760Z,20.79
2018-06-16T06:07:44.746Z,20.75
2018-06-16T06:08:44.787Z,20.90
2018-06-16T06:09:44.717Z,20.90
2018-06-16T06:10:44.720Z,20.95
2018-06-16T06:11:44.710Z,20.90
2018-06-16T06:12:44.814Z,20.89
2018-06-16T06:13:44.674Z,20.95
2018-06-16T06:14:44.720Z,20.73
2018-06-16T06:15:44.712Z,20.85
2018-06-16T06:16:44.648Z,20.85
2018-06-16T06:17:44.633Z,20.80
2018-06-16T06:18:44.616Z,20.74
2018-06-16T06:19:44.611Z,20.74
2018-06-16T06:20:44.594Z,20.75
2018-06-16T06:21:44.588Z,20.70
2018-06-16T06:22:44.581Z,20.67
2018-06-16T06:23:44.579Z,20.79
2018-06-16T06:24:44.558Z,20.86
2018-06-16T06:25:44.543Z,20.90
2018-06-16T06:26:44.526Z,20.93
2018-06-16T06:27:44.517Z,20.98
2018-06-16T06:28:44.509Z,20.93
2018-06-16T06:29:44.498Z,20.83
2018-06-16T06:30:44.488Z,20.90
2018-06-16T06:31:44.481Z,20.92
2018-06-16T06:32:44.470Z,20.90
2018-06-16T06:33:44.455Z,20.88
2018-06-16T06:34:44.446Z,20.92
2018-06-16T06:35:44.442Z,21.03
2018-06-16T06:36:44.416Z,21.05
2018-06-16T06:37:44.420Z,21.10
2018-06-16T06:38:44.406Z,21.13
2018-06-16T06:39:44.391Z,21.14
2018-06-16T06:40:44.383Z,21.28
2018-06-16T06:41:44.369Z,21.25
2018-06-16T06:42:44.360Z,21.28
2018-06-16T06:43:44.354Z,21.44
2018-06-16T06:44:44.337Z,21.53
2018-06-16T06:45:44.328Z,21.55
2018-06-16T06:46:44.317Z,21.66
2018-06-16T06:47:44.308Z,21.88
2018-06-16T06:48:44.295Z,21.94
2018-06-16T06:49:44.291Z,21.82
2018-06-16T06:50:44.276Z,21.97
2018-06-16T06:51:44.282Z,22.07
2018-06-16T06:52:44.258Z,22.16
2018-06-16T06:53:44.244Z,22.16
2018-06-16T06:54:44.229Z,22.16
2018-06-16T06:55:44.223Z,22.22
2018-06-16T06:56:44.218Z,22.19
2018-06-16T06:57:44.203Z,22.15
2018-06-16T06:58:44.187Z,21.93
2018-06-16T06:59:44.184Z,21.90
2018-06-16T07:00:44.172Z,21.82
2018-06-16T07:01:44.163Z,21.80
2018-06-16T07:02:44.151Z,21.91
2018-06-16T07:03:44.154Z,21.96
2018-06-16T07:04:44.129Z,21.90
2018-06-16T07:05:44.124Z,21.65
2018-06-16T07:06:44.107Z,21.85
2018-06-16T07:07:44.102Z,21.94
2018-06-16T07:08:44.093Z,21.91
2018-06-16T07:09:44.092Z,21.94
2018-06-16T07:10:44.169Z,21.91
2018-06-16T07:11:44.061Z,21.91
2018-06-16T07:12:44.047Z,22.12
2018-06-16T07:13:44.037Z,22.22
2018-06-16T07:14:44.029Z,22.40
2018-06-16T07:15:44.017Z,22.62
2018-06-16T07:16:44.013Z,22.58
2018-06-16T07:17:44.006Z,22.76
2018-06-16T07:18:43.992Z,22.76
2018-06-16T07:19:43.983Z,22.85
2018-06-16T07:20:43.978Z,22.77
2018-06-16T07:21:43.960Z,22.58
2018-06-16T07:22:43.947Z,22.91
2018-06-16T07:23:43.945Z,22.77
2018-06-16T07:24:43.933Z,22.91
2018-06-16T07:25:43.932Z,22.99
2018-06-16T07:26:43.917Z,22.86
2018-06-16T07:27:43.897Z,22.93
2018-06-16T07:28:43.900Z,22.91
2018-06-16T07:29:43.885Z,23.01
2018-06-16T07:30:43.882Z,23.11
2018-06-16T07:31:43.862Z,22.96
2018-06-16T07:32:43.852Z,22.93
2018-06-16T07:33:43.853Z,23.04
2018-06-16T07:34:43.841Z,22.95
2018-06-16T07:35:43.830Z,23.10
2018-06-16T07:36:43.817Z,23.22
2018-06-16T07:37:43.811Z,23.36
2018-06-16T07:38:43.798Z,23.49
2018-06-16T07:39:43.792Z,23.45
2018-06-16T07:40:43.782Z,23.36
2018-06-16T07:41:43.774Z,23.48
2018-06-16T07:42:43.773Z,23.48
2018-06-16T07:43:43.763Z,23.64
2018-06-16T07:44:43.769Z,23.73
2018-06-16T07:45:43.741Z,23.88
2018-06-16T07:46:43.731Z,23.61
2018-06-16T07:47:43.722Z,23.63
2018-06-16T07:48:43.821Z,23.69
2018-06-16T07:49:43.700Z,23.81
2018-06-16T07:50:43.693Z,23.94
2018-06-16T07:51:43.684Z,23.94
2018-06-16T07:52:43.824Z,23.86
2018-06-16T07:53:43.667Z,23.96
2018-06-16T07:54:43.763Z,23.89
2018-06-16T07:55:43.651Z,24.07
2018-06-16T07:56:43.707Z,24.15
2018-06-16T07:57:43.626Z,23.98
2018-06-16T07:58:43.625Z,23.94
2018-06-16T07:59:43.628Z,24.03
2018-06-16T08:00:43.607Z,24.13
2018-06-16T08:01:43.598Z,24.38
2018-06-16T08:02:43.621Z,24.37
2018-06-16T08:03:43.582Z,24.25
2018-06-16T08:04:43.571Z,24.29
2018-06-16T08:05:43.566Z,24.36
2018-06-16T08:06:43.559Z,24.34
2018-06-16T08:07:43.553Z,24.13
2018-06-16T08:08:43.536Z,24.01
2018-06-16T08:09:43.534Z,24.19
2018-06-16T08:10:43.528Z,24.38
2018-06-16T08:11:43.518Z,24.38
2018-06-16T08:12:43.570Z,24.18
2018-06-16T08:13:43.494Z,24.31
2018-06-16T08:14:43.487Z,24.37
2018-06-16T08:15:43.478Z,24.43
2018-06-16T08:16:43.472Z,24.25
2018-06-16T08:17:43.471Z,24.31
2018-06-16T08:18:43.453Z,24.40
2018-06-16T08:19:43.442Z,24.38
2018-06-16T08:20:43.454Z,24.36
2018-06-16T08:21:43.429Z,24.13
2018-06-16T08:22:43.424Z,24.33
2018-06-16T08:23:43.420Z,24.45
2018-06-16T08:24:43.411Z,24.51
2018-06-16T08:25:43.404Z,24.55
2018-06-16T08:26:43.391Z,24.51
2018-06-16T08:27:43.386Z,24.26
2018-06-16T08:28:43.380Z,24.52
2018-06-16T08:29:43.367Z,24.75
2018-06-16T08:30:43.359Z,24.91
2018-06-16T08:31:43.357Z,24.99
2018-06-16T08:32:43.337Z,24.84
2018-06-16T08:33:43.353Z,25.00
2018-06-16T08:34:43.364Z,24.97
2018-06-16T08:35:43.328Z,24.82
2018-06-16T08:36:43.315Z,24.66
2018-06-16T08:37:43.356Z,24.93
2018-06-16T08:38:43.299Z,24.91
2018-06-16T08:39:43.341Z,24.90
2018-06-16T08:40:43.283Z,24.97
2018-06-16T08:41:43.274Z,24.76
2018-06-16T08:42:43.274Z,24.68
2018-06-16T08:43:43.255Z,24.63
2018-06-16T08:44:43.265Z,24.33
2018-06-16T08:45:43.252Z,23.69
2018-06-16T08:46:43.248Z,23.71
2018-06-16T08:47:43.232Z,23.70
2018-06-16T08:48:43.293Z,23.96
2018-06-16T08:49:43.206Z,24.03
2018-06-16T08:50:43.204Z,24.29
2018-06-16T08:51:43.197Z,24.43
2018-06-16T08:52:43.189Z,24.34
2018-06-16T08:53:43.181Z,24.33
2018-06-16T08:54:43.171Z,24.19
2018-06-16T08:55:43.258Z,24.38
2018-06-16T08:56:43.162Z,24.33
2018-06-16T08:57:43.148Z,24.41
2018-06-16T08:58:43.137Z,24.37
2018-06-16T08:59:43.129Z,24.65
2018-06-16T09:00:43.129Z,24.29
2018-06-16T09:01:43.117Z,24.51
2018-06-16T09:02:43.112Z,24.63
2018-06-16T09:03:43.098Z,24.43
2018-06-16T09:04:43.089Z,24.62
2018-06-16T09:05:43.089Z,24.75
2018-06-16T09:06:43.075Z,24.63
2018-06-16T09:07:43.072Z,24.66
2018-06-16T09:08:43.062Z,24.68
2018-06-16T09:09:43.046Z,24.84
2018-06-16T09:10:43.050Z,24.65
2018-06-16T09:11:43.037Z,24.51
2018-06-16T09:12:43.021Z,24.75
2018-06-16T09:13:43.021Z,24.56
2018-06-16T09:14:43.021Z,24.58
2018-06-16T09:15:43.022Z,24.70
2018-06-16T09:16:42.998Z,24.75
2018-06-16T09:17:43.000Z,24.62
2018-06-16T09:18:42.985Z,24.70
2018-06-16T09:19:42.983Z,24.86
2018-06-16T09:20:42.973Z,24.89
2018-06-16T09:21:42.962Z,25.06
2018-06-16T09:22:43.015Z,25.27
2018-06-16T09:23:42.941Z,25.31
2018-06-16T09:24:42.936Z,25.41
2018-06-16T09:25:42.930Z,25.36
2018-06-16T09:26:42.925Z,25.37
2018-06-16T09:27:42.917Z,25.22
2018-06-16T09:28:42.908Z,25.06
2018-06-16T09:29:42.900Z,24.94
2018-06-16T09:30:42.887Z,24.93
2018-06-16T09:31:42.940Z,24.76
2018-06-16T09:32:42.879Z,24.82
2018-06-16T09:33:42.872Z,24.91
2018-06-16T09:34:42.862Z,24.75
2018-06-16T09:35:42.864Z,24.94
2018-06-16T09:36:42.853Z,24.85
2018-06-16T09:37:42.837Z,24.91
2018-06-16T09:38:42.840Z,24.96
2018-06-16T09:39:42.821Z,24.93
2018-06-16T09:40:42.818Z,25.08
2018-06-16T09:41:42.812Z,25.18
2018-06-16T09:42:42.802Z,24.65
2018-06-16T09:43:42.793Z,24.63
2018-06-16T09:44:42.792Z,24.47
2018-06-16T09:45:42.783Z,24.66
2018-06-16T09:46:42.767Z,24.70
2018-06-16T09:47:42.766Z,24.75
2018-06-16T09:48:42.765Z,24.71
2018-06-16T09:49:42.747Z,24.44
2018-06-16T09:50:42.740Z,24.65
2018-06-16T09:51:42.735Z,24.60
2018-06-16T09:52:42.722Z,24.82
2018-06-16T09:53:42.722Z,24.71
2018-06-16T09:54:42.705Z,24.85
2018-06-16T09:55:42.706Z,24.99
2018-06-16T09:56:42.699Z,25.19
2018-06-16T09:57:42.700Z,25.43
2018-06-16T09:58:42.693Z,25.63
2018-06-16T09:59:42.673Z,25.92
2018-06-16T10:00:42.667Z,25.88
2018-06-16T10:01:42.657Z,25.63
2018-06-16T10:02:42.651Z,25.43
2018-06-16T10:03:42.697Z,25.45
2018-06-16T10:04:42.645Z,25.61
2018-06-16T10:05:42.632Z,25.78
2018-06-16T10:06:42.621Z,26.01
2018-06-16T10:07:42.616Z,26.08
2018-06-16T10:08:42.609Z,25.96
2018-06-16T10:09:42.616Z,25.93
2018-06-16T10:10:42.597Z,25.83
2018-06-16T10:11:42.587Z,26.03
2018-06-16T10:12:42.584Z,26.34
2018-06-16T10:13:42.632Z,26.68
2018-06-16T10:14:42.570Z,26.83
2018-06-16T10:15:42.565Z,26.71
2018-06-16T10:16:42.555Z,26.67
2018-06-16T10:17:42.558Z,26.65
2018-06-16T10:18:42.540Z,26.49
2018-06-16T10:19:42.540Z,26.46
2018-06-16T10:20:42.526Z,26.12
2018-06-16T10:21:42.518Z,26.27
2018-06-16T10:22:42.513Z,25.68
2018-06-16T10:23:42.508Z,26.07
2018-06-16T10:24:42.502Z,26.26
2018-06-16T10:25:42.500Z,26.15
2018-06-16T10:26:42.491Z,26.12
2018-06-16T10:27:42.484Z,26.27
2018-06-16T10:28:42.472Z,26.10
2018-06-16T10:29:42.466Z,25.96
2018-06-16T10:30:42.463Z,25.93
2018-06-16T10:31:42.450Z,25.74
2018-06-16T10:32:42.443Z,25.64
2018-06-16T10:33:42.434Z,25.83
2018-06-16T10:34:42.427Z,25.81
2018-06-16T10:35:42.424Z,25.90
2018-06-16T10:36:42.423Z,25.59
2018-06-16T10:37:42.412Z,25.11
2018-06-16T10:38:42.409Z,25.22
2018-06-16T10:39:42.396Z,25.28
2018-06-16T10:40:42.542Z,25.30
2018-06-16T10:41:42.389Z,25.34
2018-06-16T10:42:42.524Z,25.41
2018-06-16T10:43:42.372Z,25.59
2018-06-16T10:44:42.417Z,25.59
2018-06-16T10:45:42.358Z,25.53
2018-06-16T10:46:42.450Z,25.74
2018-06-16T10:47:42.344Z,25.75
2018-06-16T10:48:42.383Z,25.58
2018-06-16T10:49:42.332Z,25.71
2018-06-16T10:50:42.319Z,25.66
2018-06-16T10:51:42.316Z,25.53
2018-06-16T10:52:42.357Z,25.75
2018-06-16T10:53:42.296Z,25.92
2018-06-16T10:54:42.294Z,25.98
2018-06-16T10:55:42.282Z,26.12
2018-06-16T10:56:42.285Z,26.10
2018-06-16T10:57:42.273Z,26.11
2018-06-16T10:58:42.263Z,26.04
2018-06-16T10:59:42.260Z,25.90
2018-06-16T11:00:42.247Z,25.93
2018-06-16T11:01:42.247Z,26.10
2018-06-16T11:02:42.242Z,26.07
2018-06-16T11:03:42.231Z,26.28
2018-06-16T11:04:42.223Z,26.03
2018-06-16T11:05:42.216Z,26.01
2018-06-16T11:06:42.208Z,26.01
2018-06-16T11:07:42.199Z,25.98
2018-06-16T11:08:42.199Z,25.90
2018-06-16T11:09:42.186Z,25.68
2018-06-16T11:10:42.176Z,25.78
2018-06-16T11:11:42.170Z,25.64
2018-06-16T11:12:42.164Z,25.86
2018-06-16T11:13:42.161Z,25.86
2018-06-16T11:14:42.147Z,25.63
2018-06-16T11:15:42.146Z,25.78
2018-06-16T11:16:42.136Z,25.49
2018-06-16T11:17:42.122Z,25.56
2018-06-16T11:18:42.132Z,25.73
2018-06-16T11:19:42.120Z,25.30
2018-06-16T11:20:42.102Z,25.33
2018-06-16T11:21:42.094Z,25.52
2018-06-16T11:22:42.090Z,25.45
2018-06-16T11:23:42.084Z,25.49
2018-06-16T11:24:42.077Z,25.31
2018-06-16T11:25:42.069Z,25.27
2018-06-16T11:26:42.061Z,25.31
2018-06-16T11:27:42.051Z,25.08
2018-06-16T11:28:42.048Z,25.28
2018-06-16T11:29:42.035Z,25.21
2018-06-16T11:30:42.032Z,25.21
2018-06-16T11:31:42.019Z,25.33
2018-06-16T11:32:42.017Z,25.21
2018-06-16T11:33:42.006Z,25.31
2018-06-16T11:34:41.999Z,25.45
2018-06-16T11:35:41.987Z,25.46
2018-06-16T11:36:41.983Z,25.22
2018-06-16T11:37:41.978Z,25.36
2018-06-16T11:38:41.969Z,25.48
2018-06-16T11:39:41.967Z,25.27
2018-06-16T11:40:41.948Z,25.26
2018-06-16T11:41:41.954Z,25.31
2018-06-16T11:42:41.980Z,25.48
2018-06-16T11:43:41.926Z,25.59
2018-06-16T11:44:41.929Z,25.70
2018-06-16T11:45:41.913Z,25.66
2018-06-16T11:46:41.911Z,25.92
2018-06-16T11:47:41.897Z,25.98
2018-06-16T11:48:41.910Z,26.20
2018-06-16T11:49:41.891Z,26.24
2018-06-16T11:50:41.881Z,26.21
2018-06-16T11:51:41.872Z,26.08
2018-06-16T11:52:41.869Z,25.98
2018-06-16T11:53:41.859Z,26.19
2018-06-16T11:54:41.846Z,26.38
2018-06-16T11:55:41.840Z,26.51
2018-06-16T11:56:41.828Z,26.33
2018-06-16T11:57:41.862Z,26.41
2018-06-16T11:58:41.818Z,26.27
2018-06-16T11:59:41.816Z,26.21
2018-06-16T12:00:41.801Z,25.95
2018-06-16T12:01:41.795Z,25.93
2018-06-16T12:02:41.786Z,25.83
2018-06-16T12:03:41.787Z,25.92
2018-06-16T12:04:41.785Z,26.11
2018-06-16T12:05:41.766Z,26.11
2018-06-16T12:06:41.760Z,26.04
2018-06-16T12:07:41.759Z,25.95
2018-06-16T12:08:41.746Z,25.83
2018-06-16T12:09:41.738Z,25.98
2018-06-16T12:10:41.738Z,25.96
2018-06-16T12:11:41.725Z,26.10
2018-06-16T12:12:41.718Z,25.98
2018-06-16T12:13:41.721Z,25.90
2018-06-16T12:14:41.699Z,25.86
2018-06-16T12:15:41.696Z,25.74
2018-06-16T12:16:41.688Z,25.89
2018-06-16T12:17:41.683Z,26.11
2018-06-16T12:18:41.673Z,25.95
2018-06-16T12:19:41.668Z,25.98
2018-06-16T12:20:41.655Z,26.03
2018-06-16T12:21:41.651Z,26.04
2018-06-16T12:22:41.652Z,25.98
2018-06-16T12:23:41.638Z,25.96
2018-06-16T12:24:41.629Z,25.66
2018-06-16T12:25:41.625Z,25.64
2018-06-16T12:26:41.618Z,25.75
2018-06-16T12:27:41.606Z,25.78
2018-06-16T12:28:41.594Z,26.03
2018-06-16T12:29:41.609Z,26.21
2018-06-16T12:30:41.588Z,26.28
2018-06-16T12:31:41.587Z,26.49
2018-06-16T12:32:41.576Z,26.68
2018-06-16T12:33:41.562Z,26.70
2018-06-16T12:34:41.556Z,26.65
2018-06-16T12:35:41.551Z,26.85
2018-06-16T12:36:41.539Z,26.90
2018-06-16T12:37:41.542Z,26.79
2018-06-16T12:38:41.524Z,26.65
2018-06-16T12:39:41.529Z,26.67
2018-06-16T12:40:41.533Z,26.51
2018-06-16T12:41:41.508Z,26.38
2018-06-16T12:42:41.500Z,26.42
2018-06-16T12:43:41.581Z,26.45
2018-06-16T12:44:41.529Z,26.28
2018-06-16T12:45:41.476Z,26.23
2018-06-16T12:46:41.466Z,26.34
2018-06-16T12:47:41.613Z,26.33
2018-06-16T12:48:41.457Z,26.36
2018-06-16T12:49:41.447Z,26.64
2018-06-16T12:50:41.446Z,26.53
2018-06-16T12:51:41.538Z,26.61
2018-06-16T12:52:41.431Z,26.49